sensor_id;sensor_type;location;lat;lon;timestamp;P1;durP1;ratioP1;P2;durP2;ratioP2
40367;SDS011;26075;43.320;21.920;2023-06-14T00:03:24;9.70;;;3.65;;
40367;SDS011;26075;43.320;21.920;2023-06-14T00:08:26;8.70;;;3.65;;
40367;SDS011;26075;43.320;21.920;2023-06-14T00:13:27;7.63;;;4.07;;
40367;SDS011;26075;43.320;21.920;2023-06-14T00:18:28;8.82;;;3.80;;
40367;SDS011;26075;43.320;21.920;2023-06-14T00:23:29;9.25;;;3.60;;
40367;SDS011;26075;43.320;21.920;2023-06-14T00:28:30;10.07;;;3.90;;
40367;SDS011;26075;43.320;21.920;2023-06-14T00:33:31;6.70;;;3.17;;
40367;SDS011;26075;43.320;21.920;2023-06-14T00:38:32;7.65;;;3.92;;
40367;SDS011;26075;43.320;21.920;2023-06-14T00:43:33;6.63;;;3.05;;
40367;SDS011;26075;43.320;21.920;2023-06-14T00:48:35;4.90;;;3.28;;
40367;SDS011;26075;43.320;21.920;2023-06-14T00:53:37;7.93;;;3.90;;
40367;SDS011;26075;43.320;21.920;2023-06-14T00:58:39;7.60;;;3.47;;
40367;SDS011;26075;43.320;21.920;2023-06-14T01:03:41;4.97;;;2.90;;
40367;SDS011;26075;43.320;21.920;2023-06-14T01:08:47;3.67;;;2.47;;
40367;SDS011;26075;43.320;21.920;2023-06-14T01:13:51;6.20;;;2.70;;
40367;SDS011;26075;43.320;21.920;2023-06-14T01:18:53;6.70;;;3.05;;
40367;SDS011;26075;43.320;21.920;2023-06-14T01:23:56;6.88;;;3.22;;
40367;SDS011;26075;43.320;21.920;2023-06-14T01:28:57;7.70;;;2.90;;
40367;SDS011;26075;43.320;21.920;2023-06-14T01:33:58;4.65;;;2.78;;
40367;SDS011;26075;43.320;21.920;2023-06-14T01:39:00;6.45;;;2.97;;
40367;SDS011;26075;43.320;21.920;2023-06-14T01:44:01;6.13;;;3.08;;
40367;SDS011;26075;43.320;21.920;2023-06-14T01:49:03;6.43;;;3.00;;
40367;SDS011;26075;43.320;21.920;2023-06-14T01:54:04;5.38;;;3.55;;
40367;SDS011;26075;43.320;21.920;2023-06-14T01:59:05;5.60;;;2.40;;
40367;SDS011;26075;43.320;21.920;2023-06-14T02:04:06;6.82;;;2.72;;
40367;SDS011;26075;43.320;21.920;2023-06-14T02:09:08;6.47;;;2.63;;
40367;SDS011;26075;43.320;21.920;2023-06-14T02:14:09;5.97;;;2.70;;
40367;SDS011;26075;43.320;21.920;2023-06-14T02:19:11;7.00;;;3.20;;
40367;SDS011;26075;43.320;21.920;2023-06-14T02:24:13;5.85;;;2.58;;
40367;SDS011;26075;43.320;21.920;2023-06-14T02:29:14;5.70;;;2.92;;
40367;SDS011;26075;43.320;21.920;2023-06-14T02:34:16;9.95;;;2.60;;
40367;SDS011;26075;43.320;21.920;2023-06-14T02:39:18;7.00;;;2.80;;
40367;SDS011;26075;43.320;21.920;2023-06-14T02:44:24;5.38;;;2.85;;
40367;SDS011;26075;43.320;21.920;2023-06-14T02:49:27;10.93;;;3.30;;
40367;SDS011;26075;43.320;21.920;2023-06-14T02:54:28;5.82;;;3.30;;
40367;SDS011;26075;43.320;21.920;2023-06-14T02:59:29;5.50;;;2.70;;
40367;SDS011;26075;43.320;21.920;2023-06-14T03:04:30;5.90;;;2.50;;
40367;SDS011;26075;43.320;21.920;2023-06-14T03:09:37;4.05;;;2.40;;
40367;SDS011;26075;43.320;21.920;2023-06-14T03:14:38;7.47;;;2.75;;
40367;SDS011;26075;43.320;21.920;2023-06-14T03:19:39;5.10;;;3.13;;
40367;SDS011;26075;43.320;21.920;2023-06-14T03:24:41;5.43;;;2.65;;
40367;SDS011;26075;43.320;21.920;2023-06-14T03:29:42;4.30;;;2.47;;
40367;SDS011;26075;43.320;21.920;2023-06-14T03:34:43;5.40;;;3.35;;
40367;SDS011;26075;43.320;21.920;2023-06-14T03:39:45;5.75;;;2.83;;
40367;SDS011;26075;43.320;21.920;2023-06-14T03:44:47;6.15;;;2.53;;
40367;SDS011;26075;43.320;21.920;2023-06-14T03:49:48;5.70;;;3.53;;
40367;SDS011;26075;43.320;21.920;2023-06-14T03:54:49;8.13;;;2.97;;
40367;SDS011;26075;43.320;21.920;2023-06-14T03:59:51;6.07;;;2.40;;
40367;SDS011;26075;43.320;21.920;2023-06-14T04:04:52;7.72;;;2.70;;
40367;SDS011;26075;43.320;21.920;2023-06-14T04:09:54;5.25;;;2.63;;
40367;SDS011;26075;43.320;21.920;2023-06-14T04:14:56;5.60;;;2.83;;
40367;SDS011;26075;43.320;21.920;2023-06-14T04:19:57;9.13;;;2.78;;
40367;SDS011;26075;43.320;21.920;2023-06-14T04:24:59;5.78;;;2.65;;
40367;SDS011;26075;43.320;21.920;2023-06-14T04:30:00;5.63;;;2.50;;
40367;SDS011;26075;43.320;21.920;2023-06-14T04:35:03;7.30;;;2.70;;
40367;SDS011;26075;43.320;21.920;2023-06-14T04:40:05;7.07;;;2.95;;
40367;SDS011;26075;43.320;21.920;2023-06-14T04:45:07;7.10;;;2.45;;
40367;SDS011;26075;43.320;21.920;2023-06-14T04:50:09;6.68;;;2.65;;
40367;SDS011;26075;43.320;21.920;2023-06-14T04:55:13;7.00;;;3.53;;
40367;SDS011;26075;43.320;21.920;2023-06-14T05:00:15;8.48;;;2.40;;
40367;SDS011;26075;43.320;21.920;2023-06-14T05:05:17;8.43;;;2.97;;
40367;SDS011;26075;43.320;21.920;2023-06-14T05:10:19;6.20;;;2.83;;
40367;SDS011;26075;43.320;21.920;2023-06-14T05:15:21;4.68;;;2.55;;
40367;SDS011;26075;43.320;21.920;2023-06-14T05:20:25;3.77;;;2.33;;
40367;SDS011;26075;43.320;21.920;2023-06-14T05:25:26;5.00;;;2.97;;
40367;SDS011;26075;43.320;21.920;2023-06-14T05:30:28;6.10;;;2.50;;
40367;SDS011;26075;43.320;21.920;2023-06-14T05:35:30;6.63;;;3.33;;
40367;SDS011;26075;43.320;21.920;2023-06-14T05:40:31;4.22;;;2.30;;
40367;SDS011;26075;43.320;21.920;2023-06-14T05:45:32;6.65;;;2.47;;
40367;SDS011;26075;43.320;21.920;2023-06-14T05:50:33;3.97;;;2.58;;
40367;SDS011;26075;43.320;21.920;2023-06-14T05:55:35;7.05;;;2.97;;
40367;SDS011;26075;43.320;21.920;2023-06-14T06:00:36;4.30;;;2.13;;
40367;SDS011;26075;43.320;21.920;2023-06-14T06:05:37;4.38;;;2.40;;
40367;SDS011;26075;43.320;21.920;2023-06-14T06:10:38;9.13;;;3.00;;
40367;SDS011;26075;43.320;21.920;2023-06-14T06:15:39;6.40;;;2.70;;
40367;SDS011;26075;43.320;21.920;2023-06-14T06:20:40;4.30;;;2.65;;
40367;SDS011;26075;43.320;21.920;2023-06-14T06:25:42;5.80;;;2.58;;
40367;SDS011;26075;43.320;21.920;2023-06-14T06:30:43;6.50;;;3.00;;
40367;SDS011;26075;43.320;21.920;2023-06-14T06:35:44;5.38;;;2.80;;
40367;SDS011;26075;43.320;21.920;2023-06-14T06:40:45;5.45;;;2.65;;
40367;SDS011;26075;43.320;21.920;2023-06-14T06:45:47;6.78;;;2.92;;
40367;SDS011;26075;43.320;21.920;2023-06-14T06:50:48;4.18;;;2.40;;
40367;SDS011;26075;43.320;21.920;2023-06-14T06:55:49;8.75;;;3.20;;
40367;SDS011;26075;43.320;21.920;2023-06-14T07:00:50;5.00;;;2.65;;
40367;SDS011;26075;43.320;21.920;2023-06-14T07:05:51;6.45;;;3.03;;
40367;SDS011;26075;43.320;21.920;2023-06-14T07:10:52;6.13;;;3.55;;
40367;SDS011;26075;43.320;21.920;2023-06-14T07:15:54;6.43;;;2.75;;
40367;SDS011;26075;43.320;21.920;2023-06-14T07:20:56;4.65;;;2.80;;
40367;SDS011;26075;43.320;21.920;2023-06-14T07:25:57;5.38;;;3.65;;
40367;SDS011;26075;43.320;21.920;2023-06-14T07:30:58;8.40;;;3.65;;
40367;SDS011;26075;43.320;21.920;2023-06-14T07:35:59;5.57;;;3.65;;
40367;SDS011;26075;43.320;21.920;2023-06-14T07:41:00;6.50;;;4.07;;
40367;SDS011;26075;43.320;21.920;2023-06-14T07:46:02;7.97;;;4.72;;
40367;SDS011;26075;43.320;21.920;2023-06-14T07:51:03;8.95;;;4.05;;
40367;SDS011;26075;43.320;21.920;2023-06-14T07:56:04;6.80;;;4.22;;
40367;SDS011;26075;43.320;21.920;2023-06-14T08:01:05;8.43;;;5.18;;
40367;SDS011;26075;43.320;21.920;2023-06-14T08:06:08;8.40;;;3.90;;
40367;SDS011;26075;43.320;21.920;2023-06-14T08:11:09;7.65;;;5.00;;
40367;SDS011;26075;43.320;21.920;2023-06-14T08:16:10;8.63;;;5.82;;
40367;SDS011;26075;43.320;21.920;2023-06-14T08:21:11;6.75;;;5.28;;
40367;SDS011;26075;43.320;21.920;2023-06-14T08:26:14;9.32;;;5.43;;
40367;SDS011;26075;43.320;21.920;2023-06-14T08:31:15;12.40;;;5.13;;
40367;SDS011;26075;43.320;21.920;2023-06-14T08:36:17;6.68;;;4.70;;
40367;SDS011;26075;43.320;21.920;2023-06-14T08:41:20;11.07;;;5.15;;
40367;SDS011;26075;43.320;21.920;2023-06-14T08:46:25;8.60;;;5.00;;
40367;SDS011;26075;43.320;21.920;2023-06-14T08:51:27;9.45;;;5.72;;
40367;SDS011;26075;43.320;21.920;2023-06-14T08:56:34;9.73;;;5.32;;
40367;SDS011;26075;43.320;21.920;2023-06-14T09:01:37;9.23;;;5.88;;
40367;SDS011;26075;43.320;21.920;2023-06-14T09:06:39;6.57;;;4.45;;
40367;SDS011;26075;43.320;21.920;2023-06-14T09:11:41;9.25;;;5.95;;
40367;SDS011;26075;43.320;21.920;2023-06-14T09:16:43;10.18;;;5.15;;
40367;SDS011;26075;43.320;21.920;2023-06-14T09:21:44;8.60;;;5.10;;
40367;SDS011;26075;43.320;21.920;2023-06-14T09:26:48;9.93;;;5.32;;
40367;SDS011;26075;43.320;21.920;2023-06-14T09:31:49;12.27;;;4.65;;
40367;SDS011;26075;43.320;21.920;2023-06-14T09:36:50;9.75;;;5.20;;
40367;SDS011;26075;43.320;21.920;2023-06-14T09:41:51;10.63;;;5.35;;
40367;SDS011;26075;43.320;21.920;2023-06-14T09:46:52;7.35;;;4.10;;
40367;SDS011;26075;43.320;21.920;2023-06-14T09:51:54;8.18;;;3.90;;
40367;SDS011;26075;43.320;21.920;2023-06-14T09:56:56;9.90;;;4.18;;
40367;SDS011;26075;43.320;21.920;2023-06-14T10:02:00;7.30;;;4.53;;
40367;SDS011;26075;43.320;21.920;2023-06-14T10:07:07;11.30;;;4.93;;
40367;SDS011;26075;43.320;21.920;2023-06-14T10:12:08;7.60;;;3.60;;
40367;SDS011;26075;43.320;21.920;2023-06-14T10:17:10;10.32;;;4.18;;
40367;SDS011;26075;43.320;21.920;2023-06-14T10:22:14;9.73;;;4.70;;
40367;SDS011;26075;43.320;21.920;2023-06-14T10:27:18;9.50;;;3.65;;
40367;SDS011;26075;43.320;21.920;2023-06-14T10:32:24;6.20;;;3.95;;
40367;SDS011;26075;43.320;21.920;2023-06-14T10:37:25;5.47;;;3.08;;
40367;SDS011;26075;43.320;21.920;2023-06-14T10:42:32;5.30;;;3.40;;
40367;SDS011;26075;43.320;21.920;2023-06-14T10:47:34;7.60;;;4.47;;
40367;SDS011;26075;43.320;21.920;2023-06-14T10:52:38;6.78;;;3.20;;
40367;SDS011;26075;43.320;21.920;2023-06-14T10:57:47;4.10;;;2.87;;
40367;SDS011;26075;43.320;21.920;2023-06-14T11:02:52;4.03;;;2.78;;
40367;SDS011;26075;43.320;21.920;2023-06-14T11:13:07;5.55;;;2.92;;
40367;SDS011;26075;43.320;21.920;2023-06-14T11:18:08;5.55;;;3.13;;
40367;SDS011;26075;43.320;21.920;2023-06-14T11:23:10;4.63;;;2.83;;
40367;SDS011;26075;43.320;21.920;2023-06-14T11:28:11;6.47;;;3.20;;
40367;SDS011;26075;43.320;21.920;2023-06-14T11:33:16;5.47;;;2.90;;
40367;SDS011;26075;43.320;21.920;2023-06-14T11:38:18;4.68;;;2.50;;
40367;SDS011;26075;43.320;21.920;2023-06-14T11:43:19;3.85;;;2.25;;
40367;SDS011;26075;43.320;21.920;2023-06-14T11:48:21;5.05;;;2.67;;
40367;SDS011;26075;43.320;21.920;2023-06-14T11:53:22;3.80;;;2.60;;
40367;SDS011;26075;43.320;21.920;2023-06-14T11:58:23;5.07;;;2.72;;
40367;SDS011;26075;43.320;21.920;2023-06-14T12:03:25;3.72;;;2.10;;
40367;SDS011;26075;43.320;21.920;2023-06-14T12:08:34;5.57;;;2.47;;
40367;SDS011;26075;43.320;21.920;2023-06-14T12:13:40;5.47;;;2.45;;
40367;SDS011;26075;43.320;21.920;2023-06-14T12:18:41;5.45;;;3.00;;
40367;SDS011;26075;43.320;21.920;2023-06-14T12:28:47;8.20;;;2.88;;
40367;SDS011;26075;43.320;21.920;2023-06-14T12:33:48;8.55;;;3.50;;
40367;SDS011;26075;43.320;21.920;2023-06-14T12:38:49;5.15;;;3.38;;
40367;SDS011;26075;43.320;21.920;2023-06-14T12:43:53;6.95;;;2.70;;
40367;SDS011;26075;43.320;21.920;2023-06-14T12:48:54;7.85;;;2.95;;
40367;SDS011;26075;43.320;21.920;2023-06-14T12:53:55;5.55;;;3.63;;
40367;SDS011;26075;43.320;21.920;2023-06-14T12:58:58;22.25;;;7.43;;
40367;SDS011;26075;43.320;21.920;2023-06-14T13:03:59;7.18;;;4.47;;
40367;SDS011;26075;43.320;21.920;2023-06-14T13:09:00;8.30;;;5.15;;
40367;SDS011;26075;43.320;21.920;2023-06-14T13:14:02;11.57;;;5.13;;
40367;SDS011;26075;43.320;21.920;2023-06-14T13:19:03;7.10;;;4.63;;
40367;SDS011;26075;43.320;21.920;2023-06-14T13:24:04;6.88;;;4.32;;
40367;SDS011;26075;43.320;21.920;2023-06-14T13:29:05;5.53;;;4.28;;
40367;SDS011;26075;43.320;21.920;2023-06-14T13:34:06;7.30;;;4.45;;
40367;SDS011;26075;43.320;21.920;2023-06-14T13:39:07;9.65;;;4.93;;
40367;SDS011;26075;43.320;21.920;2023-06-14T13:44:08;8.65;;;4.15;;
40367;SDS011;26075;43.320;21.920;2023-06-14T13:49:14;5.88;;;3.58;;
40367;SDS011;26075;43.320;21.920;2023-06-14T13:54:17;7.80;;;4.20;;
40367;SDS011;26075;43.320;21.920;2023-06-14T13:59:20;9.80;;;3.80;;
40367;SDS011;26075;43.320;21.920;2023-06-14T14:04:22;9.48;;;4.07;;
40367;SDS011;26075;43.320;21.920;2023-06-14T14:09:23;5.93;;;3.15;;
40367;SDS011;26075;43.320;21.920;2023-06-14T14:14:24;8.18;;;3.00;;
40367;SDS011;26075;43.320;21.920;2023-06-14T14:19:25;4.75;;;2.88;;
40367;SDS011;26075;43.320;21.920;2023-06-14T14:24:27;4.75;;;2.70;;
40367;SDS011;26075;43.320;21.920;2023-06-14T14:29:28;7.05;;;4.90;;
40367;SDS011;26075;43.320;21.920;2023-06-14T14:34:29;10.45;;;4.35;;
40367;SDS011;26075;43.320;21.920;2023-06-14T14:39:30;8.85;;;4.13;;
40367;SDS011;26075;43.320;21.920;2023-06-14T14:44:31;6.70;;;3.55;;
40367;SDS011;26075;43.320;21.920;2023-06-14T14:49:32;7.45;;;3.92;;
40367;SDS011;26075;43.320;21.920;2023-06-14T14:54:33;6.78;;;3.65;;
40367;SDS011;26075;43.320;21.920;2023-06-14T14:59:35;9.43;;;3.42;;
40367;SDS011;26075;43.320;21.920;2023-06-14T15:04:37;7.38;;;2.97;;
40367;SDS011;26075;43.320;21.920;2023-06-14T15:09:38;7.10;;;3.22;;
40367;SDS011;26075;43.320;21.920;2023-06-14T15:14:39;8.18;;;3.42;;
40367;SDS011;26075;43.320;21.920;2023-06-14T15:19:40;5.07;;;2.97;;
40367;SDS011;26075;43.320;21.920;2023-06-14T15:24:41;6.05;;;3.22;;
40367;SDS011;26075;43.320;21.920;2023-06-14T15:29:43;6.20;;;3.90;;
40367;SDS011;26075;43.320;21.920;2023-06-14T15:34:44;7.75;;;3.30;;
40367;SDS011;26075;43.320;21.920;2023-06-14T15:39:45;7.18;;;4.55;;
40367;SDS011;26075;43.320;21.920;2023-06-14T15:44:46;15.00;;;4.50;;
40367;SDS011;26075;43.320;21.920;2023-06-14T15:49:47;5.35;;;3.60;;
40367;SDS011;26075;43.320;21.920;2023-06-14T15:54:48;5.20;;;3.78;;
40367;SDS011;26075;43.320;21.920;2023-06-14T15:59:49;6.53;;;3.97;;
40367;SDS011;26075;43.320;21.920;2023-06-14T16:04:50;6.80;;;3.38;;
40367;SDS011;26075;43.320;21.920;2023-06-14T16:09:51;5.78;;;3.95;;
40367;SDS011;26075;43.320;21.920;2023-06-14T16:14:53;5.90;;;3.40;;
40367;SDS011;26075;43.320;21.920;2023-06-14T16:19:54;8.20;;;5.13;;
40367;SDS011;26075;43.320;21.920;2023-06-14T16:24:55;8.27;;;4.15;;
40367;SDS011;26075;43.320;21.920;2023-06-14T16:29:56;8.15;;;3.90;;
40367;SDS011;26075;43.320;21.920;2023-06-14T16:34:57;7.03;;;4.15;;
40367;SDS011;26075;43.320;21.920;2023-06-14T16:39:58;6.57;;;4.32;;
40367;SDS011;26075;43.320;21.920;2023-06-14T16:45:00;7.32;;;4.95;;
40367;SDS011;26075;43.320;21.920;2023-06-14T16:50:01;7.78;;;4.68;;
40367;SDS011;26075;43.320;21.920;2023-06-14T16:55:02;9.30;;;5.25;;
40367;SDS011;26075;43.320;21.920;2023-06-14T17:00:05;9.30;;;5.22;;
40367;SDS011;26075;43.320;21.920;2023-06-14T17:05:06;8.57;;;5.82;;
40367;SDS011;26075;43.320;21.920;2023-06-14T17:10:07;7.40;;;4.43;;
40367;SDS011;26075;43.320;21.920;2023-06-14T17:15:09;7.93;;;5.07;;
40367;SDS011;26075;43.320;21.920;2023-06-14T17:20:10;7.95;;;4.97;;
40367;SDS011;26075;43.320;21.920;2023-06-14T17:25:11;8.80;;;5.10;;
40367;SDS011;26075;43.320;21.920;2023-06-14T17:30:13;8.82;;;4.53;;
40367;SDS011;26075;43.320;21.920;2023-06-14T17:35:14;9.23;;;4.65;;
40367;SDS011;26075;43.320;21.920;2023-06-14T17:40:15;8.60;;;4.88;;
40367;SDS011;26075;43.320;21.920;2023-06-14T17:45:16;6.22;;;4.57;;
40367;SDS011;26075;43.320;21.920;2023-06-14T17:50:17;7.70;;;4.30;;
40367;SDS011;26075;43.320;21.920;2023-06-14T17:55:18;9.68;;;5.28;;
40367;SDS011;26075;43.320;21.920;2023-06-14T18:00:19;6.43;;;4.47;;
40367;SDS011;26075;43.320;21.920;2023-06-14T18:05:21;6.22;;;4.03;;
40367;SDS011;26075;43.320;21.920;2023-06-14T18:10:22;7.13;;;3.85;;
40367;SDS011;26075;43.320;21.920;2023-06-14T18:15:23;6.90;;;4.10;;
40367;SDS011;26075;43.320;21.920;2023-06-14T18:20:24;5.97;;;3.30;;
40367;SDS011;26075;43.320;21.920;2023-06-14T18:25:25;6.15;;;4.20;;
40367;SDS011;26075;43.320;21.920;2023-06-14T18:30:26;6.45;;;3.53;;
40367;SDS011;26075;43.320;21.920;2023-06-14T18:35:27;6.22;;;3.55;;
40367;SDS011;26075;43.320;21.920;2023-06-14T18:40:28;9.93;;;3.67;;
40367;SDS011;26075;43.320;21.920;2023-06-14T18:45:30;6.70;;;3.90;;
40367;SDS011;26075;43.320;21.920;2023-06-14T18:50:32;6.15;;;3.85;;
40367;SDS011;26075;43.320;21.920;2023-06-14T18:55:33;5.80;;;4.05;;
40367;SDS011;26075;43.320;21.920;2023-06-14T19:00:34;7.32;;;4.45;;
40367;SDS011;26075;43.320;21.920;2023-06-14T19:05:35;11.93;;;4.45;;
40367;SDS011;26075;43.320;21.920;2023-06-14T19:10:36;10.15;;;4.88;;
40367;SDS011;26075;43.320;21.920;2023-06-14T19:15:38;10.43;;;5.60;;
40367;SDS011;26075;43.320;21.920;2023-06-14T19:20:39;6.25;;;4.35;;
40367;SDS011;26075;43.320;21.920;2023-06-14T19:25:40;7.78;;;4.80;;
40367;SDS011;26075;43.320;21.920;2023-06-14T19:30:41;8.82;;;5.43;;
40367;SDS011;26075;43.320;21.920;2023-06-14T19:35:42;11.68;;;5.15;;
40367;SDS011;26075;43.320;21.920;2023-06-14T19:40:44;15.40;;;6.22;;
40367;SDS011;26075;43.320;21.920;2023-06-14T19:45:45;14.93;;;7.85;;
40367;SDS011;26075;43.320;21.920;2023-06-14T19:50:46;17.25;;;9.27;;
40367;SDS011;26075;43.320;21.920;2023-06-14T19:55:47;17.08;;;8.50;;
40367;SDS011;26075;43.320;21.920;2023-06-14T20:00:49;18.13;;;9.90;;
40367;SDS011;26075;43.320;21.920;2023-06-14T20:05:50;18.90;;;9.73;;
40367;SDS011;26075;43.320;21.920;2023-06-14T20:10:53;15.35;;;8.63;;
40367;SDS011;26075;43.320;21.920;2023-06-14T20:15:54;15.32;;;8.77;;
40367;SDS011;26075;43.320;21.920;2023-06-14T20:20:55;15.07;;;8.13;;
40367;SDS011;26075;43.320;21.920;2023-06-14T20:25:56;16.83;;;8.75;;
40367;SDS011;26075;43.320;21.920;2023-06-14T20:30:58;21.60;;;12.07;;
40367;SDS011;26075;43.320;21.920;2023-06-14T20:35:59;24.50;;;10.90;;
40367;SDS011;26075;43.320;21.920;2023-06-14T20:41:00;16.95;;;9.55;;
40367;SDS011;26075;43.320;21.920;2023-06-14T20:46:01;27.85;;;9.13;;
40367;SDS011;26075;43.320;21.920;2023-06-14T20:51:02;14.63;;;8.30;;
40367;SDS011;26075;43.320;21.920;2023-06-14T20:56:03;15.85;;;9.05;;
40367;SDS011;26075;43.320;21.920;2023-06-14T21:01:06;10.95;;;7.53;;
40367;SDS011;26075;43.320;21.920;2023-06-14T21:06:07;6.72;;;4.95;;
40367;SDS011;26075;43.320;21.920;2023-06-14T21:11:09;13.57;;;6.95;;
40367;SDS011;26075;43.320;21.920;2023-06-14T21:16:10;9.55;;;5.78;;
40367;SDS011;26075;43.320;21.920;2023-06-14T21:21:11;6.90;;;5.13;;
40367;SDS011;26075;43.320;21.920;2023-06-14T21:26:13;10.07;;;5.63;;
40367;SDS011;26075;43.320;21.920;2023-06-14T21:31:17;7.15;;;4.55;;
40367;SDS011;26075;43.320;21.920;2023-06-14T21:36:19;6.97;;;4.72;;
40367;SDS011;26075;43.320;21.920;2023-06-14T21:41:20;9.07;;;4.72;;
40367;SDS011;26075;43.320;21.920;2023-06-14T21:46:21;6.85;;;4.80;;
40367;SDS011;26075;43.320;21.920;2023-06-14T21:51:22;8.85;;;4.80;;
40367;SDS011;26075;43.320;21.920;2023-06-14T21:56:24;7.57;;;4.47;;
40367;SDS011;26075;43.320;21.920;2023-06-14T22:01:26;8.45;;;5.78;;
40367;SDS011;26075;43.320;21.920;2023-06-14T22:06:29;7.03;;;4.47;;
40367;SDS011;26075;43.320;21.920;2023-06-14T22:11:30;8.85;;;5.05;;
40367;SDS011;26075;43.320;21.920;2023-06-14T22:16:34;7.32;;;4.88;;
40367;SDS011;26075;43.320;21.920;2023-06-14T22:21:35;7.68;;;4.60;;
40367;SDS011;26075;43.320;21.920;2023-06-14T22:26:40;6.35;;;4.63;;
40367;SDS011;26075;43.320;21.920;2023-06-14T22:31:47;6.82;;;4.40;;
40367;SDS011;26075;43.320;21.920;2023-06-14T22:36:48;6.90;;;4.38;;
40367;SDS011;26075;43.320;21.920;2023-06-14T22:41:52;6.75;;;4.57;;
40367;SDS011;26075;43.320;21.920;2023-06-14T22:46:53;8.27;;;3.88;;
40367;SDS011;26075;43.320;21.920;2023-06-14T22:51:54;7.57;;;4.55;;
40367;SDS011;26075;43.320;21.920;2023-06-14T22:56:55;10.18;;;4.82;;
40367;SDS011;26075;43.320;21.920;2023-06-14T23:01:57;6.50;;;4.70;;
40367;SDS011;26075;43.320;21.920;2023-06-14T23:06:58;7.82;;;4.50;;
40367;SDS011;26075;43.320;21.920;2023-06-14T23:12:03;7.47;;;4.30;;
40367;SDS011;26075;43.320;21.920;2023-06-14T23:17:07;6.82;;;4.32;;
40367;SDS011;26075;43.320;21.920;2023-06-14T23:22:08;7.82;;;4.53;;
40367;SDS011;26075;43.320;21.920;2023-06-14T23:32:16;7.25;;;4.50;;
40367;SDS011;26075;43.320;21.920;2023-06-14T23:37:18;7.10;;;4.03;;
40367;SDS011;26075;43.320;21.920;2023-06-14T23:42:20;5.85;;;4.25;;
40367;SDS011;26075;43.320;21.920;2023-06-14T23:47:21;6.60;;;4.25;;
40367;SDS011;26075;43.320;21.920;2023-06-14T23:52:22;7.25;;;4.47;;
40367;SDS011;26075;43.320;21.920;2023-06-14T23:57:24;8.25;;;4.22;;
